Golden, Colorado
Current Conditions -  °F | °C
As of 9:55 AM on Friday 24 Oct 2014 (Local Time) from KBJC Reporting Station
Broken Clouds Broken Clouds  
Wind Chill: 66°   Ceiling: 20000
Heat Index: 66°   Visibility: 70mi
Dew Point: 28°   Wind: 5mph
Humidity: 24%   Direction: NA
Pressure: 30.22"   Gusts: NA
Location:  39.76°N, 105.22°W
Report Text: KBJC 241555Z VRB04KT 70SM SCT120 BKN200 19/M02 A3022
Loading
Personal Weather Stations






























Interactive Weather Map
Tropical Storm Tracking
New forecast layout! Learn more

10-Day Weather Forecast

Advertisements
Track Severe Weather on mobile